createdAt,value
2019-05-06T14:44:54.139Z,8.57
2019-05-06T14:47:27.589Z,6.40
2019-05-06T14:49:58.767Z,5.63
2019-05-06T14:52:29.975Z,5.37
2019-05-06T14:55:15.522Z,4.93
2019-05-06T14:57:46.732Z,5.80
2019-05-06T15:00:19.859Z,4.57
2019-05-06T15:02:53.119Z,6.77
2019-05-06T15:05:23.942Z,5.17
2019-05-06T15:07:55.480Z,6.40
2019-05-06T15:10:27.050Z,14.30
2019-05-06T15:13:02.004Z,15.20
2019-05-06T15:15:32.710Z,17.80
2019-05-06T15:18:04.066Z,9.07
2019-05-06T15:20:35.425Z,8.67
2019-05-06T15:23:06.691Z,6.77
2019-05-06T15:25:38.918Z,7.17
2019-05-06T15:28:10.144Z,6.00
2019-05-06T15:30:48.020Z,7.80
2019-05-06T15:33:22.480Z,7.03
2019-05-06T15:36:09.474Z,5.97
2019-05-06T15:38:42.014Z,4.57
2019-05-06T15:41:13.312Z,5.50
2019-05-06T15:43:44.416Z,9.73
2019-05-06T15:46:15.567Z,5.83
2019-05-06T15:48:46.734Z,6.57
2019-05-06T15:51:22.207Z,6.73
2019-05-06T15:53:52.974Z,9.40
2019-05-06T15:56:24.144Z,6.90
2019-05-06T15:58:55.284Z,6.90
2019-05-06T16:01:26.737Z,7.10
2019-05-06T16:03:58.031Z,5.47
2019-05-06T16:06:29.257Z,8.67
2019-05-06T16:09:00.446Z,4.80
2019-05-06T16:11:33.551Z,4.50
2019-05-06T16:14:04.967Z,6.27
2019-05-06T16:16:36.117Z,3.90
2019-05-06T16:19:07.335Z,6.60
2019-05-06T16:21:38.667Z,4.77
2019-05-06T16:24:35.319Z,4.30
2019-05-06T16:27:06.687Z,3.80
2019-05-06T16:29:38.064Z,6.47
2019-05-06T16:32:10.184Z,4.70
2019-05-06T16:34:43.057Z,5.30
2019-05-06T16:37:14.368Z,6.43
2019-05-06T16:39:45.790Z,4.20
2019-05-06T16:42:17.047Z,4.83
2019-05-06T16:44:49.555Z,4.63
2019-05-06T16:47:38.066Z,5.00
2019-05-06T16:50:13.198Z,5.10
2019-05-06T16:52:45.614Z,8.47
2019-05-06T16:55:24.033Z,5.20
2019-05-06T16:58:03.384Z,4.90
2019-05-06T17:00:36.200Z,6.60
2019-05-06T17:03:23.107Z,8.30
2019-05-06T17:06:17.128Z,7.23
2019-05-06T17:08:48.407Z,6.60
2019-05-06T17:11:27.912Z,4.03
2019-05-06T17:13:53.143Z,6.20
2019-05-06T17:16:24.399Z,4.73
2019-05-06T17:18:56.933Z,6.30
2019-05-06T17:21:28.723Z,5.07
2019-05-06T17:24:02.145Z,5.50
2019-05-06T17:26:33.880Z,6.33
2019-05-06T17:29:24.327Z,7.60
2019-05-06T17:32:22.207Z,4.63
2019-05-06T17:34:57.423Z,9.10
2019-05-06T17:37:45.305Z,6.33
2019-05-06T17:40:17.793Z,4.20
2019-05-06T17:42:49.147Z,4.20
2019-05-06T17:45:58.462Z,6.53
2019-05-06T17:48:27.784Z,4.27
2019-05-06T17:51:30.061Z,4.57
2019-05-06T17:54:02.333Z,8.40
2019-05-06T17:56:33.575Z,4.57
2019-05-06T17:59:04.983Z,5.60
2019-05-06T18:01:42.965Z,4.13
2019-05-06T18:04:14.347Z,5.57
2019-05-06T18:06:46.209Z,4.67
2019-05-06T18:09:18.971Z,6.23
2019-05-06T18:11:58.450Z,4.30
2019-05-06T18:14:27.286Z,6.53
2019-05-06T18:16:58.523Z,4.57
2019-05-06T18:19:29.774Z,5.23
2019-05-06T18:22:02.546Z,4.90
2019-05-06T18:24:33.986Z,5.63
2019-05-06T18:27:08.386Z,5.27
2019-05-06T18:29:39.622Z,7.00
2019-05-06T18:32:12.655Z,4.67
2019-05-06T18:34:43.479Z,4.57
2019-05-06T18:37:14.549Z,6.77
2019-05-06T18:39:47.214Z,5.70
2019-05-06T18:42:20.331Z,4.87
2019-05-06T18:44:51.431Z,5.40
2019-05-06T18:47:22.828Z,6.10
2019-05-06T18:49:53.969Z,7.17
2019-05-06T18:52:25.114Z,7.27
2019-05-06T18:54:56.552Z,5.37
2019-05-06T18:57:27.905Z,5.47
2019-05-06T18:59:59.221Z,5.33
2019-05-06T19:02:30.318Z,5.20
2019-05-06T19:05:13.047Z,6.53
2019-05-06T19:07:46.755Z,4.80
2019-05-06T19:10:22.450Z,6.10
2019-05-06T19:12:53.817Z,7.20
2019-05-06T19:15:25.026Z,6.93
2019-05-06T19:17:56.192Z,6.40
2019-05-06T19:20:27.523Z,6.23
2019-05-06T19:22:58.748Z,9.07
2019-05-06T19:25:34.323Z,7.60
2019-05-06T19:28:02.577Z,10.60
2019-05-06T19:30:33.967Z,9.93
2019-05-06T19:33:06.995Z,8.00
2019-05-06T19:35:39.099Z,9.20
2019-05-06T19:38:12.378Z,8.97
2019-05-06T19:40:43.307Z,9.63
2019-05-06T19:43:14.648Z,8.97
2019-05-06T19:45:45.835Z,12.30
2019-05-06T19:48:17.370Z,6.20
2019-05-06T19:50:48.714Z,12.73
2019-05-06T19:53:20.067Z,8.07
2019-05-06T19:55:53.003Z,8.63
2019-05-06T19:58:24.426Z,8.43
2019-05-06T20:00:56.452Z,8.60
2019-05-06T20:03:28.246Z,8.13
2019-05-06T20:06:27.671Z,7.77
2019-05-06T20:09:17.222Z,10.30
2019-05-06T20:11:51.472Z,9.50
2019-05-06T20:14:22.743Z,10.90
2019-05-06T20:16:54.041Z,10.40
2019-05-06T20:19:30.744Z,11.70
2019-05-06T20:21:59.523Z,8.67
2019-05-06T20:24:32.723Z,9.57
2019-05-06T20:27:04.015Z,11.60
2019-05-06T20:29:38.177Z,9.37
2019-05-06T20:32:08.478Z,7.90
2019-05-06T20:34:42.958Z,7.43
2019-05-06T20:37:14.335Z,8.60
2019-05-06T20:39:45.840Z,8.23
2019-05-06T20:42:17.218Z,7.73
2019-05-06T20:44:48.641Z,9.70
2019-05-06T20:47:20.139Z,9.83
2019-05-06T20:49:52.603Z,8.00
2019-05-06T20:52:24.172Z,8.60
2019-05-06T20:54:55.412Z,7.27
2019-05-06T20:57:26.613Z,7.43
2019-05-06T20:59:57.897Z,8.97
2019-05-06T21:02:29.091Z,7.63
2019-05-06T21:05:02.199Z,7.13
2019-05-06T21:07:33.414Z,7.60
2019-05-06T21:10:05.774Z,8.53
2019-05-06T21:12:37.048Z,9.83
2019-05-06T21:15:08.685Z,10.70
2019-05-06T21:17:41.836Z,9.90
2019-05-06T21:20:14.174Z,12.40
2019-05-06T21:22:48.716Z,9.57
2019-05-06T21:25:18.820Z,11.23
2019-05-06T21:27:50.072Z,15.30
2019-05-06T21:30:22.218Z,14.17
2019-05-06T21:32:53.423Z,11.17
2019-05-06T21:35:24.544Z,12.80
2019-05-06T21:37:55.630Z,12.70
2019-05-06T21:40:26.792Z,14.43
2019-05-06T21:42:57.985Z,15.97
2019-05-06T21:45:29.139Z,19.50
2019-05-06T21:48:02.581Z,14.83
2019-05-06T21:50:33.301Z,18.93
2019-05-06T21:53:04.630Z,16.90
2019-05-06T21:55:36.171Z,19.80
2019-05-06T21:58:07.435Z,18.20
2019-05-06T22:00:47.184Z,16.90
2019-05-06T22:03:18.390Z,18.87
2019-05-06T22:05:54.279Z,16.43
2019-05-06T22:08:23.793Z,18.03
2019-05-06T22:10:55.068Z,17.77
2019-05-06T22:13:26.366Z,14.73
2019-05-06T22:15:57.461Z,17.37
2019-05-06T22:18:30.881Z,15.03
2019-05-06T22:21:18.920Z,16.53
2019-05-06T22:23:57.659Z,13.83
2019-05-06T22:26:29.575Z,13.30
2019-05-06T22:29:02.069Z,14.57
2019-05-06T22:31:33.339Z,14.07
2019-05-06T22:34:04.548Z,12.07
2019-05-06T22:36:35.633Z,10.97
2019-05-06T22:39:07.368Z,12.47
2019-05-06T22:41:40.025Z,11.90
2019-05-06T22:44:14.068Z,12.37
2019-05-06T22:46:43.821Z,14.50
2019-05-06T22:49:14.940Z,9.70
2019-05-06T22:51:46.008Z,12.70
2019-05-06T22:54:17.086Z,14.50
2019-05-06T22:56:48.165Z,9.40
2019-05-06T22:59:19.211Z,10.93
2019-05-06T23:02:24.601Z,11.90
2019-05-06T23:04:59.150Z,8.83
2019-05-06T23:07:30.292Z,12.17
2019-05-06T23:10:01.338Z,12.53
2019-05-06T23:12:32.607Z,10.70
2019-05-06T23:15:03.984Z,13.67
2019-05-06T23:17:35.064Z,11.50
2019-05-06T23:20:07.596Z,13.63
2019-05-06T23:22:42.157Z,11.17
2019-05-06T23:25:12.641Z,12.53
2019-05-06T23:27:44.235Z,9.03
2019-05-06T23:30:15.581Z,10.73
2019-05-06T23:32:46.724Z,11.43
2019-05-06T23:35:17.800Z,15.20
2019-05-06T23:38:24.682Z,10.63
2019-05-06T23:41:32.663Z,11.80
2019-05-06T23:44:45.710Z,9.97
2019-05-06T23:47:48.324Z,11.60
2019-05-06T23:50:55.469Z,16.17
2019-05-06T23:54:03.128Z,11.60
2019-05-06T23:56:44.971Z,11.53
2019-05-06T23:59:18.175Z,15.67
